SCVD

Pichoy Airport

Airport
ICAO code
SCVD
IATA Code
ZAL
Summary
ICAO Region
CARSAM
ICAO Territory
Location

Valdivia, Los Rios

Serving
Valdivia
Elevation
59 ft
Coordinates
39° 38' 60" S , 73° 5' 10" W
KCC
Cfb
Metar
Observation
SCVD 131500Z 33023G40KT 300V010 1300 RA FEW012 BKN020 OVC025 11/10 Q1009
Station
Valdivia
Date/Time
2022-08-13 15:00:00
Wind direction
330°
Wind speed
23 kts
Lowest cloud amount
few clouds
Temperature
11°C
Dew point
10°C
Humidity
93%
QNH
1009 hPa
Weather condition
n/a

Airport 24 km north-northeast of Valdivia, Los Lagos, Chile.

Climatology

Temperate oceanic climate (Köppen climate classification Cfb)

Runways

Designator Length Width Surface Rops
17/35 2094 45 ASP No/No

Airport map

Aerial View

SKYbrary Partners:

Safety knowledge contributed by: